createdAt,value
2019-03-20T00:00:09.916Z,13.70
2019-03-20T00:02:39.256Z,12.10
2019-03-20T00:05:08.444Z,12.17
2019-03-20T00:07:37.606Z,10.40
2019-03-20T00:10:08.188Z,11.77
2019-03-20T00:12:37.257Z,11.33
2019-03-20T00:15:07.130Z,8.93
2019-03-20T00:17:36.370Z,13.23
2019-03-20T00:20:06.171Z,10.53
2019-03-20T00:22:35.422Z,11.13
2019-03-20T00:25:04.742Z,13.53
2019-03-20T00:30:45.303Z,11.73
2019-03-20T00:33:14.578Z,16.10
2019-03-20T00:35:43.803Z,15.63
2019-03-20T00:38:13.105Z,8.60
2019-03-20T00:40:42.235Z,10.10
2019-03-20T00:43:11.654Z,11.60
2019-03-20T00:45:40.836Z,12.33
2019-03-20T00:48:10.053Z,13.80
2019-03-20T00:50:39.144Z,11.33
2019-03-20T00:53:08.365Z,14.80
2019-03-20T00:55:37.743Z,15.00
2019-03-20T00:58:07.225Z,12.60
2019-03-20T01:00:38.239Z,10.97
2019-03-20T01:03:07.638Z,12.57
2019-03-20T01:05:36.847Z,9.97
2019-03-20T01:08:06.147Z,12.80
2019-03-20T01:10:35.468Z,11.40
2019-03-20T01:13:04.691Z,10.60
2019-03-20T01:15:33.637Z,9.03
2019-03-20T01:18:02.726Z,10.67
2019-03-20T01:20:31.851Z,9.73
2019-03-20T01:23:00.943Z,8.27
2019-03-20T01:25:30.060Z,10.00
2019-03-20T01:27:59.245Z,12.17
2019-03-20T01:30:32.233Z,13.83
2019-03-20T01:33:02.740Z,12.20
2019-03-20T01:35:31.902Z,9.07
2019-03-20T01:38:01.106Z,12.47
2019-03-20T01:40:30.340Z,9.97
2019-03-20T01:42:59.646Z,11.50
2019-03-20T01:45:28.869Z,14.37
2019-03-20T01:47:59.191Z,11.50
2019-03-20T01:50:28.323Z,10.90
2019-03-20T01:52:57.430Z,12.73
2019-03-20T01:55:26.639Z,12.43
2019-03-20T01:57:55.907Z,10.73
2019-03-20T02:00:25.320Z,10.17
2019-03-20T02:02:54.579Z,9.83
2019-03-20T02:05:34.723Z,9.67
2019-03-20T02:07:54.672Z,8.57
2019-03-20T02:10:23.786Z,8.73
2019-03-20T02:12:52.942Z,8.33
2019-03-20T02:15:22.038Z,11.03
2019-03-20T02:17:51.106Z,10.67
2019-03-20T02:20:20.587Z,13.23
2019-03-20T02:22:50.000Z,9.80
2019-03-20T02:25:19.299Z,10.40
2019-03-20T02:27:48.449Z,13.47
2019-03-20T02:30:18.068Z,9.10
2019-03-20T02:32:47.231Z,10.03
2019-03-20T02:35:16.349Z,13.23
2019-03-20T02:37:45.494Z,8.30
2019-03-20T02:40:15.068Z,8.07
2019-03-20T02:42:44.287Z,10.80
2019-03-20T02:45:14.656Z,8.80
2019-03-20T02:47:43.983Z,7.63
2019-03-20T02:50:13.200Z,10.93
2019-03-20T02:52:42.342Z,8.83
2019-03-20T02:55:11.425Z,19.20
2019-03-20T02:57:40.631Z,8.33
2019-03-20T03:00:11.947Z,12.10
2019-03-20T03:02:41.316Z,11.23
2019-03-20T03:05:10.759Z,14.13
2019-03-20T03:07:39.929Z,8.23
2019-03-20T03:10:10.236Z,9.47
2019-03-20T03:12:39.355Z,12.83
2019-03-20T03:15:08.863Z,12.10
2019-03-20T03:17:38.076Z,8.20
2019-03-20T03:20:07.425Z,10.57
2019-03-20T03:22:36.508Z,8.60
2019-03-20T03:25:06.310Z,12.33
2019-03-20T03:27:35.533Z,6.97
2019-03-20T03:30:05.064Z,13.23
2019-03-20T03:32:34.205Z,10.97
2019-03-20T03:35:03.306Z,8.37
2019-03-20T03:37:32.420Z,9.53
2019-03-20T03:40:01.555Z,8.03
2019-03-20T03:42:30.689Z,8.87
2019-03-20T03:44:59.813Z,11.50
2019-03-20T03:47:29.011Z,10.17
2019-03-20T03:49:58.100Z,10.37
2019-03-20T03:52:27.254Z,9.73
2019-03-20T03:54:56.356Z,10.80
2019-03-20T03:57:25.902Z,10.83
2019-03-20T03:59:55.000Z,13.90
2019-03-20T04:02:23.980Z,11.70
2019-03-20T04:04:53.059Z,9.87
2019-03-20T04:07:23.680Z,13.60
2019-03-20T04:09:53.089Z,11.00
2019-03-20T04:12:22.229Z,11.60
2019-03-20T04:14:51.451Z,12.47
2019-03-20T04:17:29.783Z,8.73
2019-03-20T04:19:58.872Z,15.57
2019-03-20T04:22:27.951Z,9.53
2019-03-20T04:24:57.358Z,11.20
2019-03-20T04:27:26.551Z,13.63
2019-03-20T04:29:55.723Z,6.60
2019-03-20T04:32:24.763Z,12.97
2019-03-20T04:34:54.011Z,9.13
2019-03-20T04:37:23.141Z,9.37
2019-03-20T04:39:52.267Z,13.20
2019-03-20T04:42:21.567Z,13.30
2019-03-20T04:44:50.740Z,10.97
2019-03-20T04:47:20.133Z,12.13
2019-03-20T04:49:49.288Z,9.03
2019-03-20T04:52:21.517Z,10.10
2019-03-20T04:54:50.648Z,14.17
2019-03-20T04:57:19.856Z,10.93
2019-03-20T04:59:48.913Z,11.57
2019-03-20T05:02:20.416Z,13.13
2019-03-20T05:04:49.602Z,17.80
2019-03-20T05:07:18.752Z,12.10
2019-03-20T05:09:47.940Z,9.50
2019-03-20T05:12:18.236Z,9.67
2019-03-20T05:14:47.180Z,9.37
2019-03-20T05:17:16.323Z,12.10
2019-03-20T05:19:45.416Z,15.27
2019-03-20T05:22:23.660Z,11.90
2019-03-20T05:24:52.958Z,11.73
2019-03-20T05:27:22.267Z,8.80
2019-03-20T05:29:51.386Z,12.40
2019-03-20T05:32:20.503Z,7.17
2019-03-20T05:34:49.594Z,12.60
2019-03-20T05:37:18.551Z,13.77
2019-03-20T05:39:47.618Z,9.33
2019-03-20T05:42:16.843Z,12.67
2019-03-20T05:44:45.913Z,10.87
2019-03-20T05:47:14.982Z,15.90
2019-03-20T05:49:43.977Z,12.00
2019-03-20T05:52:12.990Z,10.93
2019-03-20T05:54:42.032Z,10.97
2019-03-20T05:57:12.626Z,9.67
2019-03-20T05:59:41.873Z,13.97
2019-03-20T06:02:10.888Z,9.57
2019-03-20T06:04:39.973Z,12.80
2019-03-20T06:07:09.128Z,10.70
2019-03-20T06:09:38.148Z,17.40
2019-03-20T06:12:07.344Z,14.87
2019-03-20T06:14:36.396Z,12.33
2019-03-20T06:17:05.701Z,12.53
2019-03-20T06:19:34.761Z,13.83
2019-03-20T06:22:03.936Z,11.97
2019-03-20T06:24:33.021Z,11.97
2019-03-20T06:27:03.307Z,14.23
2019-03-20T06:29:32.541Z,13.53
2019-03-20T06:32:01.636Z,10.57
2019-03-20T06:34:30.799Z,12.63
2019-03-20T06:36:59.866Z,12.00
2019-03-20T06:39:28.981Z,12.37
2019-03-20T06:41:58.076Z,11.30
2019-03-20T06:44:29.326Z,13.53
2019-03-20T06:46:59.874Z,15.40
2019-03-20T06:49:28.984Z,13.60
2019-03-20T06:51:58.282Z,14.90
2019-03-20T06:54:27.600Z,18.43
2019-03-20T06:56:56.931Z,16.07
2019-03-20T07:00:10.901Z,16.43
2019-03-20T07:02:43.215Z,10.80
2019-03-20T07:05:30.756Z,12.90
2019-03-20T07:08:00.180Z,15.73
2019-03-20T07:11:10.336Z,11.80
2019-03-20T07:13:39.802Z,11.90
2019-03-20T07:16:09.174Z,11.50
2019-03-20T07:18:38.884Z,12.60
2019-03-20T07:21:08.280Z,16.73
2019-03-20T07:23:38.796Z,16.90
2019-03-20T07:26:08.069Z,15.43
2019-03-20T07:28:37.079Z,12.93
2019-03-20T07:31:14.801Z,14.87
2019-03-20T07:33:37.215Z,11.70
2019-03-20T07:36:06.379Z,15.77
2019-03-20T07:38:35.494Z,11.40
2019-03-20T07:41:04.877Z,16.07
2019-03-20T07:43:34.072Z,14.60
2019-03-20T07:46:03.234Z,10.87
2019-03-20T07:48:32.630Z,13.43
2019-03-20T07:51:02.207Z,8.03
2019-03-20T07:53:32.145Z,14.23
2019-03-20T07:56:01.325Z,9.73
2019-03-20T07:58:30.489Z,10.47
2019-03-20T08:01:02.591Z,10.60
2019-03-20T08:03:31.685Z,11.60
2019-03-20T08:06:00.870Z,11.33
2019-03-20T08:08:29.941Z,14.73
2019-03-20T08:10:59.016Z,12.17
2019-03-20T08:13:28.089Z,11.50
2019-03-20T08:15:57.288Z,11.10
2019-03-20T08:18:26.564Z,10.97
2019-03-20T08:20:55.755Z,10.00
2019-03-20T08:23:24.957Z,12.87
2019-03-20T08:25:54.088Z,10.80
2019-03-20T08:28:23.129Z,9.63
2019-03-20T08:30:52.489Z,12.80
2019-03-20T08:33:21.539Z,8.33
2019-03-20T08:35:50.886Z,8.10
2019-03-20T08:38:21.725Z,12.23
2019-03-20T08:40:50.932Z,8.70
2019-03-20T08:43:20.231Z,8.97
2019-03-20T08:45:49.429Z,9.07
2019-03-20T08:48:18.639Z,11.47
2019-03-20T08:50:47.852Z,9.70
2019-03-20T08:53:17.008Z,10.37
2019-03-20T08:55:46.152Z,9.63
2019-03-20T08:58:15.472Z,9.67
2019-03-20T09:00:44.724Z,10.30
2019-03-20T09:03:13.871Z,9.80
2019-03-20T09:05:42.938Z,10.53
2019-03-20T09:08:13.629Z,9.03
2019-03-20T09:10:42.689Z,5.97
2019-03-20T09:13:11.828Z,10.97
2019-03-20T09:15:40.958Z,11.43
2019-03-20T09:18:13.139Z,11.13
2019-03-20T09:20:42.304Z,10.87
2019-03-20T09:23:11.491Z,6.97
2019-03-20T09:25:40.639Z,11.70
2019-03-20T09:28:09.812Z,10.70
2019-03-20T09:30:38.970Z,7.57
2019-03-20T09:33:07.973Z,8.30
2019-03-20T09:35:37.201Z,13.57
2019-03-20T09:38:06.496Z,10.83
2019-03-20T09:40:35.604Z,7.77
2019-03-20T09:43:04.841Z,10.43
2019-03-20T09:45:34.086Z,8.70
2019-03-20T09:48:03.279Z,8.37
2019-03-20T09:50:32.386Z,15.03
2019-03-20T09:53:01.402Z,10.77
2019-03-20T09:55:30.521Z,9.73
2019-03-20T09:57:59.662Z,10.90
2019-03-20T10:00:28.837Z,12.10
2019-03-20T10:03:00.705Z,13.13
2019-03-20T10:05:29.849Z,12.43
2019-03-20T10:07:58.989Z,11.77
2019-03-20T10:10:28.489Z,8.47
2019-03-20T10:12:58.123Z,9.03
2019-03-20T10:15:27.508Z,9.13
2019-03-20T10:17:57.157Z,10.73
2019-03-20T10:20:26.318Z,10.30
2019-03-20T10:22:55.451Z,8.90
2019-03-20T10:25:24.688Z,12.80
2019-03-20T10:27:53.839Z,12.00
2019-03-20T10:30:23.249Z,11.90
2019-03-20T10:32:52.600Z,11.60
2019-03-20T10:35:21.901Z,10.70
2019-03-20T10:37:51.257Z,12.50
2019-03-20T10:40:20.983Z,10.27
2019-03-20T10:42:50.219Z,12.93
2019-03-20T10:45:20.325Z,10.67
2019-03-20T10:47:49.506Z,13.60
2019-03-20T10:50:21.446Z,13.23
2019-03-20T10:52:52.125Z,11.47
2019-03-20T10:55:21.268Z,15.17
2019-03-20T10:57:50.591Z,12.27
2019-03-20T11:00:21.060Z,14.57
2019-03-20T11:02:50.524Z,11.97
2019-03-20T11:05:20.359Z,10.57
2019-03-20T11:07:49.864Z,15.20
2019-03-20T11:10:21.131Z,12.90
2019-03-20T11:12:50.496Z,11.90
2019-03-20T11:15:19.957Z,15.43
2019-03-20T11:17:49.293Z,11.30
2019-03-20T11:20:18.613Z,10.50
2019-03-20T11:22:47.848Z,12.07
2019-03-20T11:25:18.298Z,14.67
2019-03-20T11:27:47.585Z,9.67
2019-03-20T11:30:21.757Z,16.43
2019-03-20T11:32:51.032Z,11.40
2019-03-20T11:35:20.482Z,12.27
2019-03-20T11:37:49.728Z,13.07
2019-03-20T11:40:21.188Z,12.77
2019-03-20T11:42:50.349Z,10.00
2019-03-20T11:45:19.579Z,13.37
2019-03-20T11:47:51.815Z,10.97
2019-03-20T11:50:32.249Z,10.43
2019-03-20T11:53:03.339Z,12.63
2019-03-20T11:55:32.618Z,14.67
2019-03-20T11:58:01.899Z,12.37
2019-03-20T12:00:31.382Z,13.83
2019-03-20T12:03:00.630Z,17.60
2019-03-20T12:05:29.781Z,9.87
2019-03-20T12:07:58.920Z,11.17
2019-03-20T12:10:28.136Z,8.97
2019-03-20T12:12:57.309Z,11.13
2019-03-20T12:15:26.503Z,11.80
2019-03-20T12:17:55.697Z,10.73
2019-03-20T12:20:25.172Z,10.87
2019-03-20T12:22:54.488Z,15.13
2019-03-20T12:25:25.784Z,8.57
2019-03-20T12:27:54.998Z,12.67
2019-03-20T12:30:26.112Z,14.10
2019-03-20T12:32:55.423Z,11.50
2019-03-20T12:35:25.637Z,10.13
2019-03-20T12:37:54.888Z,9.40
2019-03-20T12:40:28.360Z,12.53
2019-03-20T12:42:57.691Z,10.07
2019-03-20T12:45:31.651Z,12.77
2019-03-20T12:48:01.234Z,14.10
2019-03-20T12:50:30.692Z,12.13
2019-03-20T12:53:01.793Z,10.57
2019-03-20T12:55:31.315Z,13.97
2019-03-20T12:58:00.628Z,14.57
2019-03-20T13:00:29.797Z,12.33
2019-03-20T13:02:58.840Z,11.87
2019-03-20T13:05:28.286Z,13.67
2019-03-20T13:08:05.328Z,14.60
2019-03-20T13:10:28.384Z,13.63
2019-03-20T13:12:57.756Z,14.37
2019-03-20T13:15:27.297Z,15.37
2019-03-20T13:17:56.905Z,13.37
2019-03-20T13:20:26.288Z,13.43
2019-03-20T13:23:07.705Z,14.43
2019-03-20T13:25:37.410Z,12.87
2019-03-20T13:28:06.890Z,12.87
2019-03-20T13:30:49.136Z,13.67
2019-03-20T13:33:25.598Z,14.67
2019-03-20T13:35:52.327Z,18.50
2019-03-20T13:38:21.624Z,16.40
2019-03-20T13:40:52.710Z,14.03
2019-03-20T13:43:21.854Z,13.80
2019-03-20T13:45:51.045Z,13.20
2019-03-20T13:48:20.359Z,13.17
2019-03-20T13:50:49.971Z,13.73
2019-03-20T13:53:19.063Z,13.90
2019-03-20T13:55:48.327Z,11.70
2019-03-20T13:58:17.538Z,13.10
2019-03-20T14:00:46.656Z,15.23
2019-03-20T14:03:15.529Z,13.73
2019-03-20T14:05:44.263Z,15.07
2019-03-20T14:08:12.949Z,14.07
2019-03-20T14:10:49.500Z,13.70
2019-03-20T14:13:12.220Z,16.27
2019-03-20T14:15:41.130Z,14.07
2019-03-20T14:18:09.917Z,14.10
2019-03-20T14:20:38.630Z,14.83
2019-03-20T14:23:07.120Z,15.80
2019-03-20T14:25:37.309Z,14.70
2019-03-20T14:28:05.916Z,13.03
2019-03-20T14:30:34.610Z,16.67
2019-03-20T14:33:03.374Z,12.97
2019-03-20T14:35:32.036Z,18.60
2019-03-20T14:38:00.750Z,14.90
2019-03-20T14:40:35.374Z,12.73
2019-03-20T14:42:59.922Z,16.30
2019-03-20T14:45:28.706Z,12.67
2019-03-20T14:47:57.360Z,15.80
2019-03-20T14:50:25.980Z,14.67
2019-03-20T14:52:54.690Z,16.53
2019-03-20T14:55:23.288Z,14.17
2019-03-20T14:57:52.154Z,16.30
2019-03-20T15:00:21.771Z,16.43
2019-03-20T15:02:50.519Z,14.77
2019-03-20T15:05:19.513Z,15.97
2019-03-20T15:07:48.277Z,13.70
2019-03-20T15:10:17.552Z,12.27
2019-03-20T15:12:46.644Z,16.67
2019-03-20T15:15:19.934Z,13.87
2019-03-20T15:17:48.719Z,14.00
2019-03-20T15:20:17.500Z,16.37
2019-03-20T15:22:46.201Z,15.33
2019-03-20T15:25:14.921Z,13.63
2019-03-20T15:27:43.603Z,15.87
2019-03-20T15:30:12.823Z,16.17
2019-03-20T15:32:41.455Z,14.57
2019-03-20T15:35:10.098Z,11.43
2019-03-20T15:37:38.783Z,12.83
2019-03-20T15:40:08.598Z,11.33
2019-03-20T15:42:37.351Z,10.60
2019-03-20T15:45:06.160Z,14.87
2019-03-20T15:47:34.752Z,12.97
2019-03-20T15:50:03.604Z,11.67
2019-03-20T15:52:32.316Z,13.30
2019-03-20T15:55:00.876Z,11.13
2019-03-20T15:57:29.462Z,8.03
2019-03-20T15:59:58.014Z,9.37
2019-03-20T16:02:26.591Z,9.43
2019-03-20T16:04:55.128Z,10.07
2019-03-20T16:07:23.679Z,8.47
2019-03-20T16:09:52.349Z,9.30
2019-03-20T16:12:20.917Z,8.73
2019-03-20T16:14:49.465Z,10.30
2019-03-20T16:17:18.110Z,9.67
2019-03-20T16:19:46.746Z,15.33
2019-03-20T16:22:15.369Z,10.83
2019-03-20T16:24:43.986Z,9.70
2019-03-20T16:27:12.740Z,15.20
2019-03-20T16:29:41.396Z,13.03
2019-03-20T16:32:10.094Z,11.37
2019-03-20T16:34:38.724Z,11.70
2019-03-20T16:37:07.384Z,10.53
2019-03-20T16:39:36.068Z,12.17
2019-03-20T16:42:04.840Z,8.47
2019-03-20T16:44:33.441Z,10.20
2019-03-20T16:47:02.464Z,11.07
2019-03-20T16:49:31.104Z,14.03
2019-03-20T16:51:59.768Z,10.27
2019-03-20T16:54:28.418Z,15.10
2019-03-20T16:56:57.034Z,11.13
2019-03-20T16:59:25.676Z,13.23
2019-03-20T17:01:54.399Z,12.50
2019-03-20T17:04:23.005Z,9.77
2019-03-20T17:06:51.679Z,13.10
2019-03-20T17:09:20.295Z,12.33
2019-03-20T17:11:49.321Z,10.63
2019-03-20T17:14:20.160Z,11.10
2019-03-20T17:16:48.321Z,9.70
2019-03-20T17:19:17.393Z,10.97
2019-03-20T17:21:46.097Z,9.53
2019-03-20T17:24:14.769Z,11.87
2019-03-20T17:26:43.470Z,9.13
2019-03-20T17:29:13.723Z,10.97
2019-03-20T17:31:42.593Z,9.10
2019-03-20T17:34:11.416Z,11.67
2019-03-20T17:36:40.037Z,9.47
2019-03-20T17:39:09.356Z,11.73
2019-03-20T17:41:37.845Z,12.50
2019-03-20T17:44:06.496Z,9.33
2019-03-20T17:46:35.150Z,11.43
2019-03-20T17:49:04.041Z,11.10
2019-03-20T17:51:32.766Z,8.57
2019-03-20T17:54:01.512Z,16.00
2019-03-20T17:56:30.307Z,8.43
2019-03-20T17:58:59.686Z,9.43
2019-03-20T18:01:28.228Z,9.37
2019-03-20T18:03:57.215Z,10.03
2019-03-20T18:06:26.030Z,12.60
2019-03-20T18:08:54.795Z,9.13
2019-03-20T18:11:23.398Z,13.20
2019-03-20T18:13:51.896Z,8.60
2019-03-20T18:16:20.561Z,8.90
2019-03-20T18:18:49.340Z,11.60
2019-03-20T18:21:18.173Z,10.70
2019-03-20T18:23:46.789Z,10.47
2019-03-20T18:26:15.331Z,11.33
2019-03-20T18:28:44.048Z,8.37
2019-03-20T18:31:12.616Z,8.97
2019-03-20T18:33:41.528Z,9.70
2019-03-20T18:36:10.381Z,8.63
2019-03-20T18:38:38.988Z,8.37
2019-03-20T18:41:07.701Z,6.43
2019-03-20T18:43:36.185Z,12.30
2019-03-20T18:46:04.947Z,6.40
2019-03-20T18:48:33.537Z,9.23
2019-03-20T18:51:02.234Z,7.87
2019-03-20T18:53:30.750Z,6.70
2019-03-20T18:55:59.303Z,8.10
2019-03-20T18:58:27.954Z,9.33
2019-03-20T19:00:56.748Z,9.87
2019-03-20T19:03:25.428Z,9.03
2019-03-20T19:05:56.009Z,7.93
2019-03-20T19:08:24.701Z,9.73
2019-03-20T19:10:53.530Z,12.20
2019-03-20T19:13:24.358Z,13.20
2019-03-20T19:15:52.498Z,12.53
2019-03-20T19:18:21.212Z,6.57
2019-03-20T19:20:50.117Z,10.23
2019-03-20T19:23:18.661Z,12.27
2019-03-20T19:25:47.371Z,14.73
2019-03-20T19:28:16.071Z,8.37
2019-03-20T19:30:44.784Z,9.70
2019-03-20T19:33:13.444Z,11.27
2019-03-20T19:35:42.163Z,10.50
2019-03-20T19:38:10.833Z,10.00
2019-03-20T19:40:39.507Z,10.03
2019-03-20T19:43:09.910Z,9.77
2019-03-20T19:45:38.480Z,8.63
2019-03-20T19:48:07.057Z,9.80
2019-03-20T19:50:35.658Z,9.20
2019-03-20T19:53:04.482Z,9.30
2019-03-20T19:55:33.677Z,10.07
2019-03-20T19:58:02.381Z,8.33
2019-03-20T20:00:30.922Z,11.77
2019-03-20T20:02:59.836Z,10.20
2019-03-20T20:05:28.426Z,10.63
2019-03-20T20:07:57.001Z,10.50
2019-03-20T20:10:25.617Z,8.93
2019-03-20T20:12:54.298Z,10.03
2019-03-20T20:15:23.053Z,13.70
2019-03-20T20:17:51.740Z,9.70
2019-03-20T20:20:20.607Z,10.93
2019-03-20T20:22:49.274Z,10.60
2019-03-20T20:25:19.099Z,10.30
2019-03-20T20:27:47.857Z,10.00
2019-03-20T20:30:16.857Z,10.57
2019-03-20T20:32:45.432Z,10.03
2019-03-20T20:35:14.095Z,7.63
2019-03-20T20:37:42.822Z,9.60
2019-03-20T20:40:14.883Z,10.90
2019-03-20T20:42:43.542Z,11.07
2019-03-20T20:45:12.268Z,9.57
2019-03-20T20:47:40.962Z,9.93
2019-03-20T20:50:09.843Z,10.27
2019-03-20T20:52:38.513Z,10.20
2019-03-20T20:55:07.590Z,12.77
2019-03-20T20:57:36.245Z,11.23
2019-03-20T21:00:06.004Z,14.83
2019-03-20T21:02:34.684Z,13.40
2019-03-20T21:05:03.349Z,12.40
2019-03-20T21:07:32.036Z,13.27
2019-03-20T21:10:00.707Z,12.03
2019-03-20T21:12:29.300Z,11.87
2019-03-20T21:14:57.986Z,13.43
2019-03-20T21:17:43.257Z,12.60
2019-03-20T21:20:12.109Z,10.87
2019-03-20T21:22:58.816Z,12.67
2019-03-20T21:25:27.876Z,14.27
2019-03-20T21:28:31.410Z,14.83
2019-03-20T21:31:20.066Z,13.47
2019-03-20T21:34:14.245Z,16.27
2019-03-20T21:37:10.991Z,14.33
2019-03-20T21:39:39.959Z,13.77
2019-03-20T21:42:27.771Z,15.63
2019-03-20T21:45:10.388Z,15.50
2019-03-20T21:47:38.863Z,17.77
2019-03-20T21:50:45.089Z,16.47
2019-03-20T21:53:18.445Z,14.97
2019-03-20T21:56:17.264Z,16.80
2019-03-20T21:58:56.030Z,17.30
2019-03-20T22:01:50.284Z,14.53
2019-03-20T22:04:20.194Z,19.27
2019-03-20T22:07:08.037Z,14.13
2019-03-20T22:10:16.198Z,15.77
2019-03-20T22:13:28.880Z,17.80
2019-03-20T22:16:51.403Z,17.27
2019-03-20T22:19:51.708Z,15.33
2019-03-20T22:23:02.582Z,17.10
2019-03-20T22:26:04.581Z,18.33
2019-03-20T22:29:16.712Z,20.77
2019-03-20T22:32:07.287Z,19.47
2019-03-20T22:34:58.389Z,20.20
2019-03-20T22:37:28.080Z,21.70
2019-03-20T22:40:56.805Z,21.40
2019-03-20T22:43:34.680Z,22.13
2019-03-20T22:46:40.058Z,19.87
2019-03-20T22:49:38.031Z,24.30
2019-03-20T22:52:23.774Z,26.13
2019-03-20T22:55:21.171Z,25.13
2019-03-20T22:58:27.873Z,22.33
2019-03-20T23:00:57.612Z,26.33
2019-03-20T23:03:31.625Z,23.80
2019-03-20T23:06:01.235Z,25.77
2019-03-20T23:08:33.013Z,23.43
2019-03-20T23:11:02.817Z,25.70
2019-03-20T23:13:40.962Z,24.47
2019-03-20T23:16:04.552Z,29.70
2019-03-20T23:18:34.395Z,28.37
2019-03-20T23:21:04.033Z,27.97
2019-03-20T23:23:34.595Z,25.83
2019-03-20T23:26:04.322Z,23.43
2019-03-20T23:28:34.095Z,24.13
2019-03-20T23:31:03.717Z,26.10
2019-03-20T23:33:33.443Z,27.13
2019-03-20T23:36:03.004Z,27.20
2019-03-20T23:38:32.577Z,29.20
2019-03-20T23:41:02.362Z,24.60
2019-03-20T23:43:32.113Z,27.50
2019-03-20T23:46:01.749Z,26.63
2019-03-20T23:48:38.993Z,29.90
2019-03-20T23:51:11.741Z,28.50
2019-03-20T23:53:45.442Z,26.93
2019-03-20T23:56:15.153Z,30.83
2019-03-20T23:58:44.833Z,28.07
